sensor_id;sensor_type;location;lat;lon;timestamp;P1;durP1;ratioP1;P2;durP2;ratioP2
71790;SDS011;59638;52.126;5.434;2023-04-23T00:01:41;59.83;;;24.83;;
71790;SDS011;59638;52.126;5.434;2023-04-23T00:04:07;57.63;;;26.13;;
71790;SDS011;59638;52.126;5.434;2023-04-23T00:06:35;59.53;;;26.00;;
71790;SDS011;59638;52.126;5.434;2023-04-23T00:09:01;65.43;;;28.50;;
71790;SDS011;59638;52.126;5.434;2023-04-23T00:11:29;57.30;;;24.58;;
71790;SDS011;59638;52.126;5.434;2023-04-23T00:13:55;66.05;;;26.15;;
71790;SDS011;59638;52.126;5.434;2023-04-23T00:16:22;61.13;;;25.47;;
71790;SDS011;59638;52.126;5.434;2023-04-23T00:18:49;65.22;;;26.80;;
71790;SDS011;59638;52.126;5.434;2023-04-23T00:21:16;62.80;;;23.58;;
71790;SDS011;59638;52.126;5.434;2023-04-23T00:23:42;56.65;;;25.67;;
71790;SDS011;59638;52.126;5.434;2023-04-23T00:26:09;60.80;;;26.25;;
71790;SDS011;59638;52.126;5.434;2023-04-23T00:28:35;62.97;;;26.07;;
71790;SDS011;59638;52.126;5.434;2023-04-23T00:31:02;63.55;;;25.27;;
71790;SDS011;59638;52.126;5.434;2023-04-23T00:33:28;65.15;;;27.00;;
71790;SDS011;59638;52.126;5.434;2023-04-23T00:35:54;63.88;;;25.70;;
71790;SDS011;59638;52.126;5.434;2023-04-23T00:38:21;72.28;;;27.77;;
71790;SDS011;59638;52.126;5.434;2023-04-23T00:40:47;63.87;;;26.37;;
71790;SDS011;59638;52.126;5.434;2023-04-23T00:43:14;65.75;;;25.13;;
71790;SDS011;59638;52.126;5.434;2023-04-23T00:45:41;58.53;;;25.73;;
71790;SDS011;59638;52.126;5.434;2023-04-23T00:48:07;55.60;;;24.15;;
71790;SDS011;59638;52.126;5.434;2023-04-23T00:50:34;57.15;;;25.70;;
71790;SDS011;59638;52.126;5.434;2023-04-23T00:53:00;57.00;;;24.83;;
71790;SDS011;59638;52.126;5.434;2023-04-23T00:55:26;58.72;;;24.60;;
71790;SDS011;59638;52.126;5.434;2023-04-23T00:57:53;59.08;;;23.90;;
71790;SDS011;59638;52.126;5.434;2023-04-23T01:00:20;65.18;;;24.27;;
71790;SDS011;59638;52.126;5.434;2023-04-23T01:02:47;67.45;;;24.02;;
71790;SDS011;59638;52.126;5.434;2023-04-23T01:05:16;58.63;;;24.63;;
71790;SDS011;59638;52.126;5.434;2023-04-23T01:07:43;65.85;;;26.77;;
71790;SDS011;59638;52.126;5.434;2023-04-23T01:10:10;61.15;;;25.80;;
71790;SDS011;59638;52.126;5.434;2023-04-23T01:12:37;59.95;;;25.17;;
71790;SDS011;59638;52.126;5.434;2023-04-23T01:15:03;70.35;;;27.25;;
71790;SDS011;59638;52.126;5.434;2023-04-23T01:17:31;63.90;;;24.83;;
71790;SDS011;59638;52.126;5.434;2023-04-23T01:19:59;65.50;;;25.10;;
71790;SDS011;59638;52.126;5.434;2023-04-23T01:22:25;62.83;;;24.10;;
71790;SDS011;59638;52.126;5.434;2023-04-23T01:24:52;58.50;;;24.83;;
71790;SDS011;59638;52.126;5.434;2023-04-23T01:27:18;66.70;;;26.95;;
71790;SDS011;59638;52.126;5.434;2023-04-23T01:29:46;56.83;;;25.13;;
71790;SDS011;59638;52.126;5.434;2023-04-23T01:32:12;66.60;;;25.55;;
71790;SDS011;59638;52.126;5.434;2023-04-23T01:34:40;65.20;;;26.20;;
71790;SDS011;59638;52.126;5.434;2023-04-23T01:37:08;65.90;;;26.67;;
71790;SDS011;59638;52.126;5.434;2023-04-23T01:39:34;67.43;;;25.88;;
71790;SDS011;59638;52.126;5.434;2023-04-23T01:42:02;62.43;;;25.73;;
71790;SDS011;59638;52.126;5.434;2023-04-23T01:44:29;65.15;;;25.48;;
71790;SDS011;59638;52.126;5.434;2023-04-23T01:46:55;59.72;;;25.27;;
71790;SDS011;59638;52.126;5.434;2023-04-23T01:49:22;66.18;;;25.60;;
71790;SDS011;59638;52.126;5.434;2023-04-23T01:51:49;61.88;;;24.73;;
71790;SDS011;59638;52.126;5.434;2023-04-23T01:54:15;63.47;;;25.50;;
71790;SDS011;59638;52.126;5.434;2023-04-23T01:56:42;59.75;;;24.90;;
71790;SDS011;59638;52.126;5.434;2023-04-23T01:59:08;65.07;;;25.27;;
71790;SDS011;59638;52.126;5.434;2023-04-23T02:01:44;65.38;;;25.02;;
71790;SDS011;59638;52.126;5.434;2023-04-23T02:04:12;54.97;;;24.73;;
71790;SDS011;59638;52.126;5.434;2023-04-23T02:06:41;67.47;;;25.83;;
71790;SDS011;59638;52.126;5.434;2023-04-23T02:09:09;60.20;;;24.85;;
71790;SDS011;59638;52.126;5.434;2023-04-23T02:11:36;63.20;;;26.10;;
71790;SDS011;59638;52.126;5.434;2023-04-23T02:14:03;66.30;;;25.17;;
71790;SDS011;59638;52.126;5.434;2023-04-23T02:16:30;67.00;;;24.95;;
71790;SDS011;59638;52.126;5.434;2023-04-23T02:18:58;58.57;;;24.37;;
71790;SDS011;59638;52.126;5.434;2023-04-23T02:21:24;59.88;;;24.98;;
71790;SDS011;59638;52.126;5.434;2023-04-23T02:23:52;61.45;;;25.48;;
71790;SDS011;59638;52.126;5.434;2023-04-23T02:26:18;69.57;;;25.27;;
71790;SDS011;59638;52.126;5.434;2023-04-23T02:28:45;67.75;;;25.42;;
71790;SDS011;59638;52.126;5.434;2023-04-23T02:31:11;61.80;;;25.27;;
71790;SDS011;59638;52.126;5.434;2023-04-23T02:33:38;65.93;;;24.95;;
71790;SDS011;59638;52.126;5.434;2023-04-23T02:36:07;64.55;;;24.90;;
71790;SDS011;59638;52.126;5.434;2023-04-23T02:38:37;63.65;;;26.05;;
71790;SDS011;59638;52.126;5.434;2023-04-23T02:41:06;63.20;;;25.88;;
71790;SDS011;59638;52.126;5.434;2023-04-23T02:43:33;69.93;;;27.43;;
71790;SDS011;59638;52.126;5.434;2023-04-23T02:45:59;58.63;;;24.70;;
71790;SDS011;59638;52.126;5.434;2023-04-23T02:48:36;58.65;;;25.20;;
71790;SDS011;59638;52.126;5.434;2023-04-23T02:51:04;63.08;;;25.83;;
71790;SDS011;59638;52.126;5.434;2023-04-23T02:53:32;63.70;;;25.33;;
71790;SDS011;59638;52.126;5.434;2023-04-23T02:55:58;70.50;;;26.57;;
71790;SDS011;59638;52.126;5.434;2023-04-23T02:58:25;64.40;;;24.00;;
71790;SDS011;59638;52.126;5.434;2023-04-23T03:00:52;62.42;;;25.02;;
71790;SDS011;59638;52.126;5.434;2023-04-23T03:03:18;65.85;;;25.60;;
71790;SDS011;59638;52.126;5.434;2023-04-23T03:05:45;61.40;;;25.08;;
71790;SDS011;59638;52.126;5.434;2023-04-23T03:08:12;60.97;;;23.70;;
71790;SDS011;59638;52.126;5.434;2023-04-23T03:10:38;63.28;;;25.45;;
71790;SDS011;59638;52.126;5.434;2023-04-23T03:13:04;52.75;;;22.67;;
71790;SDS011;59638;52.126;5.434;2023-04-23T03:15:31;58.35;;;22.50;;
71790;SDS011;59638;52.126;5.434;2023-04-23T03:17:57;61.75;;;24.58;;
71790;SDS011;59638;52.126;5.434;2023-04-23T03:20:24;63.00;;;23.50;;
71790;SDS011;59638;52.126;5.434;2023-04-23T03:22:50;46.95;;;21.90;;
71790;SDS011;59638;52.126;5.434;2023-04-23T03:25:17;54.35;;;22.13;;
71790;SDS011;59638;52.126;5.434;2023-04-23T03:27:45;50.03;;;22.15;;
71790;SDS011;59638;52.126;5.434;2023-04-23T03:30:11;47.83;;;22.02;;
71790;SDS011;59638;52.126;5.434;2023-04-23T03:32:38;44.33;;;20.83;;
71790;SDS011;59638;52.126;5.434;2023-04-23T03:35:04;44.10;;;20.77;;
71790;SDS011;59638;52.126;5.434;2023-04-23T03:37:31;42.65;;;19.70;;
71790;SDS011;59638;52.126;5.434;2023-04-23T03:39:57;41.92;;;19.23;;
71790;SDS011;59638;52.126;5.434;2023-04-23T03:42:24;39.70;;;19.33;;
71790;SDS011;59638;52.126;5.434;2023-04-23T03:44:50;41.70;;;18.37;;
71790;SDS011;59638;52.126;5.434;2023-04-23T03:47:16;41.30;;;19.13;;
71790;SDS011;59638;52.126;5.434;2023-04-23T03:49:43;41.15;;;18.55;;
71790;SDS011;59638;52.126;5.434;2023-04-23T03:52:10;33.03;;;17.52;;
71790;SDS011;59638;52.126;5.434;2023-04-23T03:54:36;30.52;;;16.48;;
71790;SDS011;59638;52.126;5.434;2023-04-23T03:57:02;38.47;;;17.47;;
71790;SDS011;59638;52.126;5.434;2023-04-23T03:59:29;30.67;;;15.93;;
71790;SDS011;59638;52.126;5.434;2023-04-23T04:01:55;36.10;;;17.67;;
71790;SDS011;59638;52.126;5.434;2023-04-23T04:04:21;38.85;;;16.08;;
71790;SDS011;59638;52.126;5.434;2023-04-23T04:06:48;30.42;;;16.00;;
71790;SDS011;59638;52.126;5.434;2023-04-23T04:09:14;32.40;;;16.33;;
71790;SDS011;59638;52.126;5.434;2023-04-23T04:11:42;35.40;;;15.98;;
71790;SDS011;59638;52.126;5.434;2023-04-23T04:14:08;34.58;;;16.35;;
71790;SDS011;59638;52.126;5.434;2023-04-23T04:16:35;28.83;;;14.48;;
71790;SDS011;59638;52.126;5.434;2023-04-23T04:19:01;29.60;;;16.35;;
71790;SDS011;59638;52.126;5.434;2023-04-23T04:21:28;34.27;;;17.17;;
71790;SDS011;59638;52.126;5.434;2023-04-23T04:23:55;31.58;;;17.00;;
71790;SDS011;59638;52.126;5.434;2023-04-23T04:26:21;35.15;;;15.65;;
71790;SDS011;59638;52.126;5.434;2023-04-23T04:28:48;35.53;;;16.05;;
71790;SDS011;59638;52.126;5.434;2023-04-23T04:31:14;32.60;;;15.75;;
71790;SDS011;59638;52.126;5.434;2023-04-23T04:33:41;30.70;;;16.10;;
71790;SDS011;59638;52.126;5.434;2023-04-23T04:36:08;26.48;;;15.85;;
71790;SDS011;59638;52.126;5.434;2023-04-23T04:38:34;28.60;;;16.00;;
71790;SDS011;59638;52.126;5.434;2023-04-23T04:41:04;34.08;;;15.85;;
71790;SDS011;59638;52.126;5.434;2023-04-23T04:43:31;29.73;;;15.55;;
71790;SDS011;59638;52.126;5.434;2023-04-23T04:45:57;29.73;;;16.03;;
71790;SDS011;59638;52.126;5.434;2023-04-23T04:48:24;30.27;;;15.13;;
71790;SDS011;59638;52.126;5.434;2023-04-23T04:50:50;26.92;;;15.07;;
71790;SDS011;59638;52.126;5.434;2023-04-23T04:53:17;32.97;;;14.38;;
71790;SDS011;59638;52.126;5.434;2023-04-23T04:55:43;27.15;;;15.80;;
71790;SDS011;59638;52.126;5.434;2023-04-23T04:58:10;23.70;;;13.87;;
71790;SDS011;59638;52.126;5.434;2023-04-23T05:00:36;33.20;;;14.68;;
71790;SDS011;59638;52.126;5.434;2023-04-23T05:03:03;33.72;;;15.68;;
71790;SDS011;59638;52.126;5.434;2023-04-23T05:05:30;29.95;;;15.82;;
71790;SDS011;59638;52.126;5.434;2023-04-23T05:07:58;24.70;;;15.13;;
71790;SDS011;59638;52.126;5.434;2023-04-23T05:10:27;31.20;;;14.90;;
71790;SDS011;59638;52.126;5.434;2023-04-23T05:12:57;24.23;;;14.15;;
71790;SDS011;59638;52.126;5.434;2023-04-23T05:15:23;27.05;;;14.43;;
71790;SDS011;59638;52.126;5.434;2023-04-23T05:17:50;28.08;;;14.85;;
71790;SDS011;59638;52.126;5.434;2023-04-23T05:20:19;23.10;;;14.38;;
71790;SDS011;59638;52.126;5.434;2023-04-23T05:22:46;29.60;;;14.03;;
71790;SDS011;59638;52.126;5.434;2023-04-23T05:25:13;21.85;;;13.32;;
71790;SDS011;59638;52.126;5.434;2023-04-23T05:27:40;24.58;;;14.07;;
71790;SDS011;59638;52.126;5.434;2023-04-23T05:30:07;24.42;;;14.20;;
71790;SDS011;59638;52.126;5.434;2023-04-23T05:32:35;26.08;;;14.02;;
71790;SDS011;59638;52.126;5.434;2023-04-23T05:35:02;22.67;;;12.93;;
71790;SDS011;59638;52.126;5.434;2023-04-23T05:37:29;24.05;;;13.35;;
71790;SDS011;59638;52.126;5.434;2023-04-23T05:39:55;25.15;;;15.05;;
71790;SDS011;59638;52.126;5.434;2023-04-23T05:42:23;23.15;;;12.77;;
71790;SDS011;59638;52.126;5.434;2023-04-23T05:44:49;27.88;;;13.07;;
71790;SDS011;59638;52.126;5.434;2023-04-23T05:47:16;25.67;;;14.47;;
71790;SDS011;59638;52.126;5.434;2023-04-23T05:49:42;20.75;;;13.13;;
71790;SDS011;59638;52.126;5.434;2023-04-23T05:52:09;26.42;;;13.88;;
71790;SDS011;59638;52.126;5.434;2023-04-23T05:54:36;22.27;;;14.90;;
71790;SDS011;59638;52.126;5.434;2023-04-23T05:57:02;20.75;;;13.93;;
71790;SDS011;59638;52.126;5.434;2023-04-23T05:59:30;19.57;;;14.13;;
71790;SDS011;59638;52.126;5.434;2023-04-23T06:01:57;24.30;;;14.88;;
71790;SDS011;59638;52.126;5.434;2023-04-23T06:04:23;22.73;;;14.35;;
71790;SDS011;59638;52.126;5.434;2023-04-23T06:06:50;18.90;;;13.70;;
71790;SDS011;59638;52.126;5.434;2023-04-23T06:09:16;19.67;;;13.40;;
71790;SDS011;59638;52.126;5.434;2023-04-23T06:11:43;20.10;;;12.30;;
71790;SDS011;59638;52.126;5.434;2023-04-23T06:14:09;17.23;;;12.77;;
71790;SDS011;59638;52.126;5.434;2023-04-23T06:16:36;19.60;;;12.93;;
71790;SDS011;59638;52.126;5.434;2023-04-23T06:19:02;14.77;;;11.43;;
71790;SDS011;59638;52.126;5.434;2023-04-23T06:21:29;15.73;;;12.38;;
71790;SDS011;59638;52.126;5.434;2023-04-23T06:23:55;15.00;;;11.87;;
71790;SDS011;59638;52.126;5.434;2023-04-23T06:26:22;19.67;;;12.07;;
71790;SDS011;59638;52.126;5.434;2023-04-23T06:28:48;17.23;;;12.25;;
71790;SDS011;59638;52.126;5.434;2023-04-23T06:31:14;17.10;;;10.63;;
71790;SDS011;59638;52.126;5.434;2023-04-23T06:33:41;14.85;;;11.10;;
71790;SDS011;59638;52.126;5.434;2023-04-23T06:36:07;13.27;;;9.07;;
71790;SDS011;59638;52.126;5.434;2023-04-23T06:38:36;13.80;;;9.80;;
71790;SDS011;59638;52.126;5.434;2023-04-23T06:41:03;11.30;;;9.38;;
71790;SDS011;59638;52.126;5.434;2023-04-23T06:43:30;13.82;;;9.98;;
71790;SDS011;59638;52.126;5.434;2023-04-23T06:45:56;11.20;;;9.30;;
71790;SDS011;59638;52.126;5.434;2023-04-23T06:48:23;9.80;;;8.43;;
71790;SDS011;59638;52.126;5.434;2023-04-23T06:50:50;9.45;;;8.55;;
71790;SDS011;59638;52.126;5.434;2023-04-23T06:53:17;10.23;;;9.05;;
71790;SDS011;59638;52.126;5.434;2023-04-23T06:55:43;8.75;;;7.95;;
71790;SDS011;59638;52.126;5.434;2023-04-23T06:58:10;8.88;;;8.07;;
71790;SDS011;59638;52.126;5.434;2023-04-23T07:00:39;11.17;;;7.60;;
71790;SDS011;59638;52.126;5.434;2023-04-23T07:03:05;9.20;;;8.23;;
71790;SDS011;59638;52.126;5.434;2023-04-23T07:05:32;9.10;;;8.00;;
71790;SDS011;59638;52.126;5.434;2023-04-23T07:07:59;8.40;;;7.35;;
71790;SDS011;59638;52.126;5.434;2023-04-23T07:10:25;8.95;;;8.05;;
71790;SDS011;59638;52.126;5.434;2023-04-23T07:12:51;7.77;;;7.07;;
71790;SDS011;59638;52.126;5.434;2023-04-23T07:15:18;9.50;;;6.95;;
71790;SDS011;59638;52.126;5.434;2023-04-23T07:17:44;7.15;;;6.55;;
71790;SDS011;59638;52.126;5.434;2023-04-23T07:20:11;6.47;;;5.95;;
71790;SDS011;59638;52.126;5.434;2023-04-23T07:22:37;7.72;;;6.72;;
71790;SDS011;59638;52.126;5.434;2023-04-23T07:25:04;6.37;;;5.77;;
71790;SDS011;59638;52.126;5.434;2023-04-23T07:27:31;7.47;;;6.72;;
71790;SDS011;59638;52.126;5.434;2023-04-23T07:29:57;6.43;;;5.60;;
71790;SDS011;59638;52.126;5.434;2023-04-23T07:32:23;7.32;;;6.63;;
71790;SDS011;59638;52.126;5.434;2023-04-23T07:34:53;6.78;;;6.18;;
71790;SDS011;59638;52.126;5.434;2023-04-23T07:37:21;6.37;;;5.40;;
71790;SDS011;59638;52.126;5.434;2023-04-23T07:39:47;4.93;;;4.53;;
71790;SDS011;59638;52.126;5.434;2023-04-23T07:42:14;5.63;;;4.97;;
71790;SDS011;59638;52.126;5.434;2023-04-23T07:44:41;6.78;;;4.50;;
71790;SDS011;59638;52.126;5.434;2023-04-23T07:47:07;5.80;;;4.63;;
71790;SDS011;59638;52.126;5.434;2023-04-23T07:49:33;4.97;;;4.57;;
71790;SDS011;59638;52.126;5.434;2023-04-23T07:52:00;4.45;;;4.05;;
71790;SDS011;59638;52.126;5.434;2023-04-23T07:54:26;4.25;;;3.85;;
71790;SDS011;59638;52.126;5.434;2023-04-23T07:56:52;7.13;;;4.15;;
71790;SDS011;59638;52.126;5.434;2023-04-23T07:59:19;7.25;;;3.50;;
71790;SDS011;59638;52.126;5.434;2023-04-23T08:01:45;4.57;;;3.33;;
71790;SDS011;59638;52.126;5.434;2023-04-23T08:04:12;5.03;;;3.05;;
71790;SDS011;59638;52.126;5.434;2023-04-23T08:06:39;3.58;;;3.25;;
71790;SDS011;59638;52.126;5.434;2023-04-23T08:09:06;4.93;;;2.97;;
71790;SDS011;59638;52.126;5.434;2023-04-23T08:11:34;4.85;;;3.22;;
71790;SDS011;59638;52.126;5.434;2023-04-23T08:14:00;5.77;;;2.47;;
71790;SDS011;59638;52.126;5.434;2023-04-23T08:16:27;6.35;;;3.38;;
71790;SDS011;59638;52.126;5.434;2023-04-23T08:18:55;7.88;;;3.30;;
71790;SDS011;59638;52.126;5.434;2023-04-23T08:21:31;3.63;;;2.53;;
71790;SDS011;59638;52.126;5.434;2023-04-23T08:23:58;4.82;;;2.30;;
71790;SDS011;59638;52.126;5.434;2023-04-23T08:26:25;8.67;;;2.60;;
71790;SDS011;59638;52.126;5.434;2023-04-23T08:28:51;3.35;;;3.00;;
71790;SDS011;59638;52.126;5.434;2023-04-23T08:31:18;4.72;;;2.05;;
71790;SDS011;59638;52.126;5.434;2023-04-23T08:33:51;5.57;;;1.98;;
71790;SDS011;59638;52.126;5.434;2023-04-23T08:36:18;5.53;;;2.38;;
71790;SDS011;59638;52.126;5.434;2023-04-23T08:38:44;8.57;;;3.17;;
71790;SDS011;59638;52.126;5.434;2023-04-23T08:41:12;5.93;;;2.13;;
71790;SDS011;59638;52.126;5.434;2023-04-23T08:43:43;6.63;;;2.40;;
71790;SDS011;59638;52.126;5.434;2023-04-23T08:46:12;6.40;;;2.17;;
71790;SDS011;59638;52.126;5.434;2023-04-23T08:48:43;3.08;;;2.25;;
71790;SDS011;59638;52.126;5.434;2023-04-23T08:51:11;3.50;;;1.90;;
71790;SDS011;59638;52.126;5.434;2023-04-23T08:53:42;3.60;;;2.17;;
71790;SDS011;59638;52.126;5.434;2023-04-23T08:56:12;6.15;;;2.25;;
71790;SDS011;59638;52.126;5.434;2023-04-23T08:58:39;8.50;;;2.38;;
71790;SDS011;59638;52.126;5.434;2023-04-23T09:01:06;6.47;;;2.15;;
71790;SDS011;59638;52.126;5.434;2023-04-23T09:03:34;5.37;;;2.43;;
71790;SDS011;59638;52.126;5.434;2023-04-23T09:06:01;6.07;;;2.90;;
71790;SDS011;59638;52.126;5.434;2023-04-23T09:08:27;4.05;;;2.53;;
71790;SDS011;59638;52.126;5.434;2023-04-23T09:10:55;8.93;;;2.65;;
71790;SDS011;59638;52.126;5.434;2023-04-23T09:13:25;6.82;;;2.63;;
71790;SDS011;59638;52.126;5.434;2023-04-23T09:15:52;7.80;;;1.97;;
71790;SDS011;59638;52.126;5.434;2023-04-23T09:18:18;5.03;;;1.75;;
71790;SDS011;59638;52.126;5.434;2023-04-23T09:20:45;5.55;;;2.17;;
71790;SDS011;59638;52.126;5.434;2023-04-23T09:23:13;4.60;;;1.77;;
71790;SDS011;59638;52.126;5.434;2023-04-23T09:25:40;9.23;;;2.13;;
71790;SDS011;59638;52.126;5.434;2023-04-23T09:28:07;5.23;;;1.67;;
71790;SDS011;59638;52.126;5.434;2023-04-23T09:30:41;6.88;;;1.88;;
71790;SDS011;59638;52.126;5.434;2023-04-23T09:33:12;4.32;;;1.70;;
71790;SDS011;59638;52.126;5.434;2023-04-23T09:35:42;7.60;;;1.80;;
71790;SDS011;59638;52.126;5.434;2023-04-23T09:38:08;5.40;;;2.22;;
71790;SDS011;59638;52.126;5.434;2023-04-23T09:40:36;4.77;;;1.67;;
71790;SDS011;59638;52.126;5.434;2023-04-23T09:43:03;6.68;;;1.40;;
71790;SDS011;59638;52.126;5.434;2023-04-23T09:45:32;4.50;;;1.42;;
71790;SDS011;59638;52.126;5.434;2023-04-23T09:48:00;7.57;;;1.10;;
71790;SDS011;59638;52.126;5.434;2023-04-23T09:50:38;3.40;;;1.35;;
71790;SDS011;59638;52.126;5.434;2023-04-23T09:53:06;4.97;;;1.27;;
71790;SDS011;59638;52.126;5.434;2023-04-23T09:55:37;5.45;;;1.45;;
71790;SDS011;59638;52.126;5.434;2023-04-23T09:58:12;7.20;;;0.93;;
71790;SDS011;59638;52.126;5.434;2023-04-23T10:00:42;5.00;;;1.10;;
71790;SDS011;59638;52.126;5.434;2023-04-23T10:03:09;4.55;;;1.10;;
71790;SDS011;59638;52.126;5.434;2023-04-23T10:05:38;4.40;;;1.20;;
71790;SDS011;59638;52.126;5.434;2023-04-23T10:08:12;3.25;;;0.80;;
71790;SDS011;59638;52.126;5.434;2023-04-23T10:10:39;4.72;;;1.23;;
71790;SDS011;59638;52.126;5.434;2023-04-23T10:13:25;3.17;;;0.70;;
71790;SDS011;59638;52.126;5.434;2023-04-23T10:15:51;4.57;;;1.17;;
71790;SDS011;59638;52.126;5.434;2023-04-23T10:18:18;6.57;;;1.10;;
71790;SDS011;59638;52.126;5.434;2023-04-23T10:20:45;5.22;;;1.40;;
71790;SDS011;59638;52.126;5.434;2023-04-23T10:23:13;5.50;;;1.02;;
71790;SDS011;59638;52.126;5.434;2023-04-23T10:25:42;4.65;;;0.93;;
71790;SDS011;59638;52.126;5.434;2023-04-23T10:28:09;9.70;;;1.73;;
71790;SDS011;59638;52.126;5.434;2023-04-23T10:30:36;4.40;;;1.50;;
71790;SDS011;59638;52.126;5.434;2023-04-23T10:33:03;4.78;;;0.73;;
71790;SDS011;59638;52.126;5.434;2023-04-23T10:35:41;3.60;;;0.73;;
71790;SDS011;59638;52.126;5.434;2023-04-23T10:38:07;3.97;;;0.50;;
71790;SDS011;59638;52.126;5.434;2023-04-23T10:40:34;4.57;;;0.50;;
71790;SDS011;59638;52.126;5.434;2023-04-23T10:43:03;1.70;;;0.40;;
71790;SDS011;59638;52.126;5.434;2023-04-23T10:45:30;5.32;;;0.77;;
71790;SDS011;59638;52.126;5.434;2023-04-23T10:47:58;6.95;;;1.33;;
71790;SDS011;59638;52.126;5.434;2023-04-23T10:50:25;3.03;;;0.75;;
71790;SDS011;59638;52.126;5.434;2023-04-23T10:52:55;5.32;;;0.98;;
71790;SDS011;59638;52.126;5.434;2023-04-23T10:55:24;2.33;;;0.73;;
71790;SDS011;59638;52.126;5.434;2023-04-23T10:58:05;2.50;;;0.65;;
71790;SDS011;59638;52.126;5.434;2023-04-23T11:06:11;6.50;;;0.57;;
71790;SDS011;59638;52.126;5.434;2023-04-23T11:08:51;2.27;;;0.60;;
71790;SDS011;59638;52.126;5.434;2023-04-23T11:11:41;3.10;;;0.43;;
71790;SDS011;59638;52.126;5.434;2023-04-23T11:14:11;5.43;;;0.68;;
71790;SDS011;59638;52.126;5.434;2023-04-23T11:16:41;4.13;;;0.40;;
71790;SDS011;59638;52.126;5.434;2023-04-23T11:19:08;2.80;;;0.45;;
71790;SDS011;59638;52.126;5.434;2023-04-23T11:24:29;4.90;;;0.30;;
71790;SDS011;59638;52.126;5.434;2023-04-23T11:27:04;5.75;;;0.82;;
71790;SDS011;59638;52.126;5.434;2023-04-23T11:29:32;1.75;;;0.38;;
71790;SDS011;59638;52.126;5.434;2023-04-23T11:31:59;2.58;;;0.50;;
71790;SDS011;59638;52.126;5.434;2023-04-23T11:34:29;4.93;;;0.40;;
71790;SDS011;59638;52.126;5.434;2023-04-23T11:36:57;2.42;;;0.50;;
71790;SDS011;59638;52.126;5.434;2023-04-23T11:39:24;3.60;;;0.50;;
71790;SDS011;59638;52.126;5.434;2023-04-23T11:41:51;3.15;;;0.63;;
71790;SDS011;59638;52.126;5.434;2023-04-23T11:44:20;2.72;;;0.30;;
71790;SDS011;59638;52.126;5.434;2023-04-23T11:46:47;3.47;;;0.37;;
71790;SDS011;59638;52.126;5.434;2023-04-23T11:49:15;2.58;;;0.40;;
71790;SDS011;59638;52.126;5.434;2023-04-23T11:51:43;3.75;;;0.40;;
71790;SDS011;59638;52.126;5.434;2023-04-23T11:54:11;3.50;;;0.38;;
71790;SDS011;59638;52.126;5.434;2023-04-23T11:56:39;3.25;;;0.28;;
71790;SDS011;59638;52.126;5.434;2023-04-23T11:59:06;5.20;;;0.43;;
71790;SDS011;59638;52.126;5.434;2023-04-23T12:04:17;2.78;;;0.40;;
71790;SDS011;59638;52.126;5.434;2023-04-23T12:06:47;2.90;;;0.20;;
71790;SDS011;59638;52.126;5.434;2023-04-23T12:09:15;2.05;;;0.40;;
71790;SDS011;59638;52.126;5.434;2023-04-23T12:11:43;2.30;;;0.30;;
71790;SDS011;59638;52.126;5.434;2023-04-23T12:14:11;3.55;;;0.40;;
71790;SDS011;59638;52.126;5.434;2023-04-23T12:16:44;3.58;;;0.40;;
71790;SDS011;59638;52.126;5.434;2023-04-23T12:19:13;2.05;;;0.40;;
71790;SDS011;59638;52.126;5.434;2023-04-23T12:24:14;3.50;;;0.80;;
71790;SDS011;59638;52.126;5.434;2023-04-23T12:26:41;4.38;;;0.40;;
71790;SDS011;59638;52.126;5.434;2023-04-23T12:29:11;5.03;;;0.40;;
71790;SDS011;59638;52.126;5.434;2023-04-23T12:31:38;2.58;;;0.50;;
71790;SDS011;59638;52.126;5.434;2023-04-23T12:34:05;3.08;;;0.30;;
71790;SDS011;59638;52.126;5.434;2023-04-23T12:36:34;3.03;;;0.27;;
71790;SDS011;59638;52.126;5.434;2023-04-23T12:41:48;4.50;;;0.40;;
71790;SDS011;59638;52.126;5.434;2023-04-23T12:44:17;2.75;;;0.30;;
71790;SDS011;59638;52.126;5.434;2023-04-23T12:46:43;4.00;;;0.32;;
71790;SDS011;59638;52.126;5.434;2023-04-23T12:49:10;2.47;;;0.30;;
71790;SDS011;59638;52.126;5.434;2023-04-23T12:51:36;3.10;;;0.30;;
71790;SDS011;59638;52.126;5.434;2023-04-23T12:54:03;4.85;;;0.88;;
71790;SDS011;59638;52.126;5.434;2023-04-23T12:56:29;2.03;;;0.20;;
71790;SDS011;59638;52.126;5.434;2023-04-23T12:58:56;2.78;;;0.30;;
71790;SDS011;59638;52.126;5.434;2023-04-23T13:01:22;2.83;;;0.20;;
71790;SDS011;59638;52.126;5.434;2023-04-23T13:03:49;2.10;;;0.30;;
71790;SDS011;59638;52.126;5.434;2023-04-23T13:06:15;1.88;;;0.30;;
71790;SDS011;59638;52.126;5.434;2023-04-23T13:08:42;1.83;;;0.28;;
71790;SDS011;59638;52.126;5.434;2023-04-23T13:11:08;4.28;;;1.00;;
71790;SDS011;59638;52.126;5.434;2023-04-23T13:13:36;2.43;;;0.30;;
71790;SDS011;59638;52.126;5.434;2023-04-23T13:16:02;3.35;;;0.30;;
71790;SDS011;59638;52.126;5.434;2023-04-23T13:18:29;1.33;;;0.20;;
71790;SDS011;59638;52.126;5.434;2023-04-23T13:20:55;2.25;;;0.30;;
71790;SDS011;59638;52.126;5.434;2023-04-23T13:23:22;3.00;;;0.65;;
71790;SDS011;59638;52.126;5.434;2023-04-23T13:25:48;2.47;;;0.20;;
71790;SDS011;59638;52.126;5.434;2023-04-23T13:28:15;2.22;;;0.13;;
71790;SDS011;59638;52.126;5.434;2023-04-23T13:30:41;2.45;;;0.30;;
71790;SDS011;59638;52.126;5.434;2023-04-23T13:33:08;3.60;;;0.25;;
71790;SDS011;59638;52.126;5.434;2023-04-23T13:35:34;3.08;;;0.30;;
71790;SDS011;59638;52.126;5.434;2023-04-23T13:38:03;2.23;;;0.20;;
71790;SDS011;59638;52.126;5.434;2023-04-23T13:40:29;1.75;;;0.30;;
71790;SDS011;59638;52.126;5.434;2023-04-23T13:42:56;2.20;;;0.28;;
71790;SDS011;59638;52.126;5.434;2023-04-23T13:45:22;1.17;;;0.28;;
71790;SDS011;59638;52.126;5.434;2023-04-23T13:47:49;2.67;;;0.20;;
71790;SDS011;59638;52.126;5.434;2023-04-23T13:50:16;2.33;;;0.30;;
71790;SDS011;59638;52.126;5.434;2023-04-23T13:52:42;1.00;;;0.10;;
71790;SDS011;59638;52.126;5.434;2023-04-23T13:55:08;2.17;;;0.40;;
71790;SDS011;59638;52.126;5.434;2023-04-23T13:57:35;2.22;;;0.22;;
71790;SDS011;59638;52.126;5.434;2023-04-23T14:00:03;4.55;;;0.28;;
71790;SDS011;59638;52.126;5.434;2023-04-23T14:02:30;3.13;;;0.10;;
71790;SDS011;59638;52.126;5.434;2023-04-23T14:04:56;0.95;;;0.10;;
71790;SDS011;59638;52.126;5.434;2023-04-23T14:07:23;1.17;;;0.10;;
71790;SDS011;59638;52.126;5.434;2023-04-23T14:09:50;2.83;;;0.20;;
71790;SDS011;59638;52.126;5.434;2023-04-23T14:12:18;2.65;;;0.73;;
71790;SDS011;59638;52.126;5.434;2023-04-23T14:14:44;1.73;;;0.40;;
71790;SDS011;59638;52.126;5.434;2023-04-23T14:17:11;2.60;;;0.57;;
71790;SDS011;59638;52.126;5.434;2023-04-23T14:19:37;1.48;;;0.20;;
71790;SDS011;59638;52.126;5.434;2023-04-23T14:22:04;1.33;;;0.28;;
71790;SDS011;59638;52.126;5.434;2023-04-23T14:24:37;1.52;;;0.20;;
71790;SDS011;59638;52.126;5.434;2023-04-23T14:27:09;1.87;;;0.40;;
71790;SDS011;59638;52.126;5.434;2023-04-23T14:32:05;3.75;;;0.30;;
71790;SDS011;59638;52.126;5.434;2023-04-23T14:34:31;5.22;;;0.95;;
71790;SDS011;59638;52.126;5.434;2023-04-23T14:37:01;2.72;;;0.20;;
71790;SDS011;59638;52.126;5.434;2023-04-23T14:39:28;3.40;;;0.60;;
71790;SDS011;59638;52.126;5.434;2023-04-23T14:41:54;1.50;;;0.30;;
71790;SDS011;59638;52.126;5.434;2023-04-23T14:44:21;1.05;;;0.20;;
71790;SDS011;59638;52.126;5.434;2023-04-23T14:46:54;5.45;;;0.30;;
71790;SDS011;59638;52.126;5.434;2023-04-23T14:49:21;2.22;;;0.55;;
71790;SDS011;59638;52.126;5.434;2023-04-23T14:51:48;1.47;;;0.20;;
71790;SDS011;59638;52.126;5.434;2023-04-23T14:54:16;2.95;;;0.90;;
71790;SDS011;59638;52.126;5.434;2023-04-23T14:56:42;2.63;;;0.20;;